createdAt,value
2022-08-29T00:00:37.400Z,2.90
2022-08-29T00:03:08.464Z,2.97
2022-08-29T00:05:37.223Z,2.90
2022-08-29T00:08:05.256Z,2.83
2022-08-29T00:10:33.477Z,3.00
2022-08-29T00:13:00.785Z,3.10
2022-08-29T00:15:27.757Z,2.97
2022-08-29T00:17:54.486Z,3.00
2022-08-29T00:20:30.321Z,2.80
2022-08-29T00:23:01.890Z,2.70
2022-08-29T00:25:28.730Z,3.03
2022-08-29T00:27:55.439Z,2.70
2022-08-29T00:30:23.420Z,2.70
2022-08-29T00:32:50.557Z,3.20
2022-08-29T00:35:23.881Z,3.00
2022-08-29T00:37:52.135Z,2.55
2022-08-29T00:40:23.644Z,2.75
2022-08-29T00:42:50.479Z,3.13
2022-08-29T00:45:18.194Z,3.08
2022-08-29T00:47:57.705Z,2.83
2022-08-29T00:50:28.836Z,3.10
2022-08-29T00:52:57.213Z,2.80
2022-08-29T00:55:25.699Z,3.08
2022-08-29T00:57:56.817Z,3.22
2022-08-29T01:00:24.402Z,2.83
2022-08-29T01:02:51.522Z,3.10
2022-08-29T01:05:19.864Z,3.00
2022-08-29T01:07:47.783Z,2.83
2022-08-29T01:10:35.609Z,2.97
2022-08-29T01:13:06.103Z,3.15
2022-08-29T01:15:33.751Z,3.10
2022-08-29T01:18:01.957Z,3.20
2022-08-29T01:20:54.346Z,3.03
2022-08-29T01:23:36.209Z,3.00
2022-08-29T01:26:04.217Z,2.72
2022-08-29T01:28:34.066Z,2.55
2022-08-29T01:31:05.149Z,2.75
2022-08-29T01:33:54.336Z,2.80
2022-08-29T01:36:24.603Z,3.03
2022-08-29T01:38:51.763Z,2.83
2022-08-29T01:41:20.746Z,3.08
2022-08-29T01:43:52.703Z,3.00
2022-08-29T01:46:26.951Z,2.80
2022-08-29T01:48:54.004Z,3.20
2022-08-29T01:51:21.030Z,2.70
2022-08-29T01:53:47.751Z,3.50
2022-08-29T01:56:21.819Z,2.90
2022-08-29T01:58:50.565Z,3.42
2022-08-29T02:01:19.671Z,3.00
2022-08-29T02:03:48.910Z,3.00
2022-08-29T02:06:15.749Z,3.13
2022-08-29T02:08:44.320Z,2.92
2022-08-29T02:11:12.184Z,3.00
2022-08-29T02:13:51.262Z,3.35
2022-08-29T02:16:19.140Z,2.90
2022-08-29T02:18:46.414Z,3.10
2022-08-29T02:21:15.055Z,2.83
2022-08-29T02:23:42.679Z,3.10
2022-08-29T02:26:09.430Z,3.05
2022-08-29T02:28:37.765Z,3.10
2022-08-29T02:31:05.662Z,3.08
2022-08-29T02:33:33.005Z,3.35
2022-08-29T02:35:59.798Z,3.40
2022-08-29T02:38:28.377Z,3.03
2022-08-29T02:40:55.619Z,3.50
2022-08-29T02:43:23.604Z,3.35
2022-08-29T02:45:50.636Z,3.35
2022-08-29T02:48:17.937Z,3.30
2022-08-29T02:50:48.193Z,3.05
2022-08-29T02:53:18.534Z,3.30
2022-08-29T02:55:46.832Z,3.65
2022-08-29T02:58:14.204Z,3.53
2022-08-29T03:00:42.123Z,3.67
2022-08-29T03:03:09.171Z,3.40
2022-08-29T03:05:37.215Z,3.33
2022-08-29T03:08:07.357Z,3.20
2022-08-29T03:10:34.366Z,3.53
2022-08-29T03:13:01.382Z,3.47
2022-08-29T03:15:28.161Z,3.50
2022-08-29T03:17:55.698Z,3.65
2022-08-29T03:20:24.107Z,3.53
2022-08-29T03:22:51.973Z,3.70
2022-08-29T03:25:18.828Z,3.60
2022-08-29T03:27:45.566Z,3.38
2022-08-29T03:30:14.605Z,3.53
2022-08-29T03:32:41.734Z,3.53
2022-08-29T03:35:11.018Z,3.42
2022-08-29T03:37:37.865Z,3.50
2022-08-29T03:40:07.489Z,3.40
2022-08-29T03:42:35.529Z,3.80
2022-08-29T03:45:07.117Z,3.78
2022-08-29T03:47:33.944Z,4.15
2022-08-29T03:50:00.806Z,3.78
2022-08-29T03:52:27.646Z,3.55
2022-08-29T03:54:54.375Z,3.78
2022-08-29T03:57:21.112Z,3.63
2022-08-29T03:59:48.213Z,3.40
2022-08-29T04:02:20.867Z,3.65
2022-08-29T04:05:08.254Z,3.63
2022-08-29T04:07:42.977Z,3.50
2022-08-29T04:10:11.565Z,3.35
2022-08-29T04:12:39.124Z,3.45
2022-08-29T04:15:06.843Z,3.67
2022-08-29T04:17:34.206Z,3.53
2022-08-29T04:20:01.065Z,3.60
2022-08-29T04:22:27.760Z,3.92
2022-08-29T04:24:54.516Z,3.90
2022-08-29T04:27:21.312Z,4.32
2022-08-29T04:29:48.586Z,4.20
2022-08-29T04:32:18.674Z,4.20
2022-08-29T04:34:45.564Z,4.15
2022-08-29T04:37:12.372Z,3.88
2022-08-29T04:39:39.162Z,4.68
2022-08-29T04:42:06.045Z,4.35
2022-08-29T04:44:32.813Z,4.40
2022-08-29T04:46:59.553Z,4.30
2022-08-29T04:49:26.330Z,4.05
2022-08-29T04:51:53.675Z,4.15
2022-08-29T04:54:20.566Z,3.60
2022-08-29T04:56:47.657Z,3.55
2022-08-29T04:59:16.387Z,4.18
2022-08-29T05:01:43.603Z,4.10
2022-08-29T05:04:14.358Z,4.05
2022-08-29T05:06:41.849Z,4.00
2022-08-29T05:09:08.731Z,4.05
2022-08-29T05:11:35.488Z,4.03
2022-08-29T05:14:02.659Z,3.92
2022-08-29T05:16:31.054Z,4.18
2022-08-29T05:18:59.474Z,3.50
2022-08-29T05:21:28.878Z,4.28
2022-08-29T05:23:56.641Z,3.63
2022-08-29T05:26:24.293Z,3.72
2022-08-29T05:28:51.535Z,4.10
2022-08-29T05:31:18.908Z,3.85
2022-08-29T05:33:45.691Z,3.70
2022-08-29T05:36:12.632Z,4.00
2022-08-29T05:38:39.430Z,3.88
2022-08-29T05:41:07.416Z,4.43
2022-08-29T05:43:35.169Z,4.18
2022-08-29T05:46:07.214Z,3.95
2022-08-29T05:48:34.629Z,3.85
2022-08-29T05:51:01.588Z,4.15
2022-08-29T05:53:28.647Z,4.00
2022-08-29T05:55:55.541Z,4.05
2022-08-29T05:58:22.672Z,4.20
2022-08-29T06:00:49.653Z,4.32
2022-08-29T06:03:16.701Z,4.03
2022-08-29T06:05:43.730Z,4.05
2022-08-29T06:08:11.014Z,4.57
2022-08-29T06:10:43.477Z,4.47
2022-08-29T06:13:10.318Z,4.28
2022-08-29T06:15:37.148Z,5.13
2022-08-29T06:18:04.514Z,4.55
2022-08-29T06:20:31.249Z,4.43
2022-08-29T06:22:58.015Z,4.45
2022-08-29T06:25:40.562Z,4.45
2022-08-29T06:28:07.933Z,5.05
2022-08-29T06:30:34.803Z,4.47
2022-08-29T06:33:02.185Z,4.85
2022-08-29T06:35:29.054Z,4.68
2022-08-29T06:37:55.840Z,4.78
2022-08-29T06:40:22.807Z,5.05
2022-08-29T06:42:49.730Z,5.00
2022-08-29T06:45:16.532Z,4.93
2022-08-29T06:47:43.385Z,4.50
2022-08-29T06:50:10.270Z,5.00
2022-08-29T06:52:36.957Z,5.00
2022-08-29T06:55:05.379Z,4.95
2022-08-29T06:57:32.102Z,4.90
2022-08-29T06:59:58.919Z,5.13
2022-08-29T07:02:25.682Z,5.13
2022-08-29T07:04:52.423Z,4.80
2022-08-29T07:07:19.129Z,4.90
2022-08-29T07:09:46.128Z,4.68
2022-08-29T07:12:12.895Z,4.80
2022-08-29T07:14:39.611Z,3.95
2022-08-29T07:17:06.752Z,4.88
2022-08-29T07:19:33.440Z,4.18
2022-08-29T07:22:00.430Z,4.82
2022-08-29T07:24:27.254Z,4.60
2022-08-29T07:26:53.960Z,4.60
2022-08-29T07:29:21.827Z,5.00
2022-08-29T07:31:48.870Z,4.60
2022-08-29T07:34:15.632Z,4.28
2022-08-29T07:36:42.579Z,4.90
2022-08-29T07:39:12.876Z,4.63
2022-08-29T07:41:40.616Z,4.93
2022-08-29T07:44:07.547Z,5.18
2022-08-29T07:46:34.608Z,4.15
2022-08-29T07:49:01.938Z,3.60
2022-08-29T07:51:29.025Z,4.07
2022-08-29T07:53:56.949Z,4.05
2022-08-29T07:56:31.563Z,4.35
2022-08-29T07:59:01.255Z,4.00
2022-08-29T08:01:28.186Z,3.95
2022-08-29T08:03:55.329Z,4.30
2022-08-29T08:06:27.303Z,4.13
2022-08-29T08:08:54.517Z,3.70
2022-08-29T08:11:22.617Z,4.15
2022-08-29T08:13:49.725Z,4.35
2022-08-29T08:16:20.370Z,3.90
2022-08-29T08:18:47.490Z,4.15
2022-08-29T08:21:14.384Z,3.97
2022-08-29T08:23:41.914Z,4.20
2022-08-29T08:26:11.022Z,4.13
2022-08-29T08:28:38.370Z,4.35
2022-08-29T08:31:07.445Z,3.83
2022-08-29T08:33:35.604Z,4.13
2022-08-29T08:36:03.847Z,4.03
2022-08-29T08:38:31.418Z,3.40
2022-08-29T08:41:16.758Z,3.90
2022-08-29T08:43:51.757Z,3.63
2022-08-29T08:46:36.634Z,3.35
2022-08-29T08:49:07.434Z,3.97
2022-08-29T08:51:35.488Z,3.72
2022-08-29T08:54:06.647Z,3.63
2022-08-29T08:56:47.699Z,3.63
2022-08-29T08:59:39.463Z,3.83
2022-08-29T09:02:31.495Z,3.58
2022-08-29T09:05:03.214Z,3.42
2022-08-29T09:07:41.627Z,3.63
2022-08-29T09:10:36.407Z,3.25
2022-08-29T09:13:19.431Z,3.10
2022-08-29T09:15:48.770Z,3.53
2022-08-29T09:18:38.968Z,3.40
2022-08-29T09:21:36.975Z,3.10
2022-08-29T09:24:02.958Z,2.95
2022-08-29T09:26:30.576Z,3.10
2022-08-29T09:28:59.037Z,3.38
2022-08-29T09:31:35.138Z,3.22
2022-08-29T09:34:03.636Z,3.35
2022-08-29T09:36:36.403Z,3.10
2022-08-29T09:39:13.990Z,3.20
2022-08-29T09:41:41.053Z,3.28
2022-08-29T09:44:13.735Z,3.53
2022-08-29T09:46:40.808Z,3.95
2022-08-29T09:49:11.605Z,2.88
2022-08-29T09:51:43.916Z,3.53
2022-08-29T09:54:22.527Z,3.42
2022-08-29T09:56:57.027Z,3.25
2022-08-29T09:59:29.898Z,3.53
2022-08-29T10:02:18.618Z,3.03
2022-08-29T10:04:48.943Z,3.47
2022-08-29T10:07:20.509Z,3.33
2022-08-29T10:10:16.981Z,3.40
2022-08-29T10:12:52.361Z,3.40
2022-08-29T10:15:49.448Z,3.28
2022-08-29T10:18:43.059Z,3.85
2022-08-29T10:21:24.430Z,3.75
2022-08-29T10:23:54.257Z,3.05
2022-08-29T10:26:36.251Z,3.60
2022-08-29T10:29:21.524Z,3.20
2022-08-29T10:32:23.815Z,2.90
2022-08-29T10:35:07.663Z,3.63
2022-08-29T10:37:44.791Z,3.30
2022-08-29T10:40:29.026Z,3.85
2022-08-29T10:43:12.856Z,3.75
2022-08-29T10:45:57.508Z,3.78
2022-08-29T10:51:20.611Z,4.05
2022-08-29T10:53:55.121Z,3.40
2022-08-29T10:59:07.052Z,3.90
2022-08-29T11:01:44.365Z,3.70
2022-08-29T11:04:32.279Z,3.67
2022-08-29T11:07:28.550Z,3.45
2022-08-29T11:09:59.563Z,3.83
2022-08-29T11:12:52.774Z,3.47
2022-08-29T11:15:19.507Z,3.45
2022-08-29T11:17:52.777Z,3.92
2022-08-29T11:20:24.355Z,3.72
2022-08-29T11:23:04.617Z,3.28
2022-08-29T11:25:34.988Z,3.72
2022-08-29T11:28:09.356Z,3.13
2022-08-29T11:31:03.496Z,3.53
2022-08-29T11:33:36.812Z,3.30
2022-08-29T11:36:19.407Z,2.78
2022-08-29T11:39:19.814Z,3.33
2022-08-29T11:41:49.002Z,3.28
2022-08-29T11:44:21.643Z,3.90
2022-08-29T11:46:54.719Z,3.05
2022-08-29T11:49:38.094Z,2.80
2022-08-29T11:52:11.119Z,3.22
2022-08-29T11:54:39.129Z,3.33
2022-08-29T11:57:05.969Z,2.90
2022-08-29T12:00:06.446Z,3.17
2022-08-29T12:02:33.228Z,3.10
2022-08-29T12:05:07.524Z,3.40
2022-08-29T12:10:19.353Z,3.53
2022-08-29T12:12:48.367Z,3.28
2022-08-29T12:15:27.269Z,2.92
2022-08-29T12:18:03.803Z,2.95
2022-08-29T12:20:30.808Z,3.80
2022-08-29T12:23:29.932Z,3.42
2022-08-29T12:26:21.420Z,3.83
2022-08-29T12:28:57.102Z,3.40
2022-08-29T12:31:47.251Z,3.30
2022-08-29T12:34:45.461Z,3.33
2022-08-29T12:37:45.187Z,3.10
2022-08-29T12:40:55.166Z,3.78
2022-08-29T12:43:33.525Z,3.13
2022-08-29T12:46:04.166Z,3.08
2022-08-29T12:48:40.194Z,3.38
2022-08-29T12:51:07.194Z,3.03
2022-08-29T12:53:35.081Z,3.22
2022-08-29T12:56:17.086Z,3.28
2022-08-29T12:58:58.624Z,3.72
2022-08-29T13:01:25.368Z,3.45
2022-08-29T13:03:57.346Z,3.22
2022-08-29T13:06:24.172Z,3.03
2022-08-29T13:08:50.927Z,3.10
2022-08-29T13:11:22.080Z,2.97
2022-08-29T13:13:49.647Z,4.18
2022-08-29T13:16:29.254Z,3.60
2022-08-29T13:19:09.922Z,3.50
2022-08-29T13:21:37.035Z,3.42
2022-08-29T13:24:09.327Z,3.42
2022-08-29T13:26:39.835Z,3.30
2022-08-29T13:29:09.508Z,3.22
2022-08-29T13:31:37.673Z,3.88
2022-08-29T13:34:07.385Z,3.63
2022-08-29T13:36:39.685Z,3.20
2022-08-29T13:39:19.136Z,3.50
2022-08-29T13:42:01.904Z,3.20
2022-08-29T13:44:49.199Z,3.30
2022-08-29T13:47:25.786Z,3.67
2022-08-29T13:49:57.866Z,3.03
2022-08-29T13:52:24.634Z,3.03
2022-08-29T13:54:58.239Z,3.75
2022-08-29T13:57:29.054Z,3.10
2022-08-29T13:59:56.737Z,3.35
2022-08-29T14:02:25.446Z,3.10
2022-08-29T14:04:52.529Z,3.35
2022-08-29T14:07:22.473Z,3.28
2022-08-29T14:09:49.792Z,3.47
2022-08-29T14:12:17.351Z,3.25
2022-08-29T14:14:44.686Z,3.97
2022-08-29T14:17:14.301Z,3.33
2022-08-29T14:19:46.407Z,3.63
2022-08-29T14:22:13.488Z,3.00
2022-08-29T14:24:41.245Z,3.00
2022-08-29T14:27:08.178Z,3.42
2022-08-29T14:29:35.688Z,3.35
2022-08-29T14:32:03.470Z,3.05
2022-08-29T14:34:32.885Z,3.42
2022-08-29T14:37:01.111Z,2.92
2022-08-29T14:39:28.357Z,3.15
2022-08-29T14:41:55.440Z,3.58
2022-08-29T14:44:22.354Z,3.22
2022-08-29T14:46:49.960Z,3.58
2022-08-29T14:49:16.783Z,3.40
2022-08-29T14:51:47.197Z,3.20
2022-08-29T14:54:14.092Z,3.10
2022-08-29T14:56:50.093Z,3.38
2022-08-29T14:59:22.008Z,2.90
2022-08-29T15:01:54.269Z,3.30
2022-08-29T15:04:36.147Z,3.15
2022-08-29T15:07:09.751Z,2.95
2022-08-29T15:09:38.001Z,3.10
2022-08-29T15:12:05.250Z,3.00
2022-08-29T15:14:34.286Z,3.17
2022-08-29T15:17:00.993Z,8.15
2022-08-29T15:22:14.581Z,3.00
2022-08-29T15:24:41.477Z,2.72
2022-08-29T15:27:08.837Z,2.83
2022-08-29T15:29:37.642Z,3.13
2022-08-29T15:32:05.151Z,3.33
2022-08-29T15:34:32.163Z,3.10
2022-08-29T15:36:59.271Z,3.33
2022-08-29T15:39:27.553Z,3.10
2022-08-29T15:41:58.924Z,3.08
2022-08-29T15:44:26.138Z,3.08
2022-08-29T15:46:55.873Z,3.97
2022-08-29T15:49:25.171Z,2.90
2022-08-29T15:51:53.132Z,3.10
2022-08-29T15:54:20.899Z,2.80
2022-08-29T15:56:48.351Z,2.95
2022-08-29T15:59:15.872Z,3.00
2022-08-29T16:01:48.825Z,3.20
2022-08-29T16:04:18.772Z,3.08
2022-08-29T16:06:45.661Z,2.85
2022-08-29T16:09:15.594Z,3.17
2022-08-29T16:11:51.878Z,2.83
2022-08-29T16:17:06.814Z,2.85
2022-08-29T16:19:37.398Z,3.22
2022-08-29T16:22:06.600Z,2.97
2022-08-29T16:24:35.006Z,3.03
2022-08-29T16:27:01.914Z,3.20
2022-08-29T16:29:29.395Z,2.92
2022-08-29T16:31:58.434Z,3.15
2022-08-29T16:34:26.448Z,3.20
2022-08-29T16:37:00.518Z,3.00
2022-08-29T16:39:28.488Z,3.00
2022-08-29T16:41:55.221Z,3.38
2022-08-29T16:44:24.587Z,3.03
2022-08-29T16:46:54.078Z,3.00
2022-08-29T16:49:20.864Z,3.10
2022-08-29T16:51:47.541Z,3.47
2022-08-29T16:54:15.261Z,3.28
2022-08-29T16:56:42.503Z,2.92
2022-08-29T16:59:10.883Z,3.15
2022-08-29T17:01:43.325Z,3.00
2022-08-29T17:04:19.522Z,3.03
2022-08-29T17:06:47.978Z,2.92
2022-08-29T17:09:16.550Z,3.00
2022-08-29T17:11:43.829Z,2.85
2022-08-29T17:14:11.561Z,2.80
2022-08-29T17:16:39.870Z,2.92
2022-08-29T17:19:09.643Z,2.83
2022-08-29T17:21:36.603Z,3.10
2022-08-29T17:24:07.167Z,3.03
2022-08-29T17:26:36.253Z,2.80
2022-08-29T17:29:06.305Z,3.05
2022-08-29T17:31:38.321Z,2.80
2022-08-29T17:34:06.710Z,2.95
2022-08-29T17:36:36.478Z,2.90
2022-08-29T17:39:04.886Z,2.95
2022-08-29T17:41:31.872Z,2.97
2022-08-29T17:43:59.726Z,2.90
2022-08-29T17:46:26.550Z,2.70
2022-08-29T17:48:53.375Z,2.50
2022-08-29T17:51:20.484Z,3.00
2022-08-29T17:53:49.834Z,2.92
2022-08-29T17:56:26.335Z,2.92
2022-08-29T17:58:53.671Z,2.80
2022-08-29T18:01:20.456Z,3.08
2022-08-29T18:03:47.342Z,3.20
2022-08-29T18:06:15.019Z,2.53
2022-08-29T18:08:45.794Z,2.80
2022-08-29T18:11:15.921Z,3.00
2022-08-29T18:13:43.007Z,2.60
2022-08-29T18:16:10.718Z,2.95
2022-08-29T18:18:39.076Z,2.60
2022-08-29T18:21:06.417Z,2.90
2022-08-29T18:23:33.548Z,2.95
2022-08-29T18:26:00.599Z,2.72
2022-08-29T18:28:27.592Z,2.85
2022-08-29T18:30:54.663Z,2.80
2022-08-29T18:33:22.182Z,2.55
2022-08-29T18:35:48.989Z,2.90
2022-08-29T18:38:16.218Z,2.92
2022-08-29T18:40:44.283Z,2.42
2022-08-29T18:43:12.637Z,3.53
2022-08-29T18:45:41.131Z,2.60
2022-08-29T18:48:08.502Z,2.72
2022-08-29T18:50:35.494Z,2.60
2022-08-29T18:53:20.819Z,3.30
2022-08-29T18:55:50.574Z,2.78
2022-08-29T18:58:21.891Z,2.90
2022-08-29T19:00:49.079Z,2.58
2022-08-29T19:03:16.665Z,2.70
2022-08-29T19:05:49.556Z,2.67
2022-08-29T19:08:17.530Z,2.60
2022-08-29T19:10:45.862Z,2.50
2022-08-29T19:13:13.786Z,2.63
2022-08-29T19:15:41.564Z,2.53
2022-08-29T19:18:09.438Z,2.97
2022-08-29T19:20:55.330Z,2.60
2022-08-29T19:23:22.564Z,2.40
2022-08-29T19:25:49.949Z,2.45
2022-08-29T19:28:19.668Z,2.75
2022-08-29T19:30:47.862Z,2.58
2022-08-29T19:33:18.379Z,2.40
2022-08-29T19:35:48.970Z,2.42
2022-08-29T19:38:16.278Z,2.92
2022-08-29T19:40:43.139Z,2.38
2022-08-29T19:43:10.446Z,2.40
2022-08-29T19:45:42.244Z,2.25
2022-08-29T19:48:09.400Z,2.45
2022-08-29T19:50:41.837Z,2.70
2022-08-29T19:53:09.996Z,2.95
2022-08-29T19:55:38.774Z,2.60
2022-08-29T19:58:06.305Z,2.63
2022-08-29T20:00:33.353Z,2.85
2022-08-29T20:03:00.967Z,2.90
2022-08-29T20:05:27.689Z,2.60
2022-08-29T20:07:54.662Z,2.38
2022-08-29T20:10:24.967Z,2.50
2022-08-29T20:12:53.688Z,3.08
2022-08-29T20:15:22.271Z,2.63
2022-08-29T20:18:02.255Z,2.50
2022-08-29T20:20:34.458Z,2.70
2022-08-29T20:23:01.629Z,2.58
2022-08-29T20:25:29.022Z,2.90
2022-08-29T20:27:55.999Z,2.38
2022-08-29T20:30:26.716Z,2.40
2022-08-29T20:32:53.657Z,2.63
2022-08-29T20:35:40.135Z,2.35
2022-08-29T20:38:07.448Z,2.78
2022-08-29T20:40:39.754Z,2.30
2022-08-29T20:43:06.919Z,2.45
2022-08-29T20:45:34.398Z,2.30
2022-08-29T20:48:01.745Z,2.40
2022-08-29T20:52:56.267Z,2.47
2022-08-29T20:55:23.538Z,2.50
2022-08-29T20:57:50.400Z,2.42
2022-08-29T21:00:19.556Z,2.10
2022-08-29T21:03:05.564Z,2.58
2022-08-29T21:05:45.223Z,2.15
2022-08-29T21:08:18.225Z,2.53
2022-08-29T21:10:46.209Z,2.63
2022-08-29T21:13:14.158Z,2.40
2022-08-29T21:15:42.039Z,2.53
2022-08-29T21:18:10.494Z,2.85
2022-08-29T21:20:44.751Z,2.22
2022-08-29T21:23:20.903Z,2.08
2022-08-29T21:25:52.746Z,2.38
2022-08-29T21:28:19.463Z,2.47
2022-08-29T21:30:46.196Z,2.47
2022-08-29T21:33:13.313Z,2.53
2022-08-29T21:35:40.928Z,2.80
2022-08-29T21:38:08.951Z,2.40
2022-08-29T21:40:36.196Z,2.30
2022-08-29T21:43:10.874Z,2.35
2022-08-29T21:45:40.341Z,2.70
2022-08-29T21:48:07.117Z,2.55
2022-08-29T21:50:34.002Z,3.08
2022-08-29T21:53:00.672Z,2.50
2022-08-29T21:55:27.393Z,2.50
2022-08-29T21:58:01.040Z,2.45
2022-08-29T22:00:33.398Z,2.60
2022-08-29T22:03:05.630Z,2.40
2022-08-29T22:05:32.946Z,2.28
2022-08-29T22:08:04.204Z,2.70
2022-08-29T22:10:34.844Z,2.60
2022-08-29T22:13:02.825Z,2.40
2022-08-29T22:15:48.594Z,2.25
2022-08-29T22:18:15.907Z,2.60
2022-08-29T22:20:43.527Z,2.63
2022-08-29T22:23:10.364Z,2.33
2022-08-29T22:25:37.286Z,2.42
2022-08-29T22:28:04.639Z,2.53
2022-08-29T22:30:32.684Z,2.45
2022-08-29T22:33:00.275Z,2.30
2022-08-29T22:35:28.353Z,2.30
2022-08-29T22:37:55.292Z,2.10
2022-08-29T22:40:22.046Z,2.55
2022-08-29T22:42:48.932Z,2.60
2022-08-29T22:45:16.665Z,2.40
2022-08-29T22:47:44.862Z,2.78
2022-08-29T22:50:16.189Z,2.90
2022-08-29T22:52:42.957Z,2.80
2022-08-29T22:55:13.391Z,3.10
2022-08-29T22:57:41.967Z,2.50
2022-08-29T23:00:09.385Z,2.58
2022-08-29T23:02:36.159Z,2.60
2022-08-29T23:05:07.557Z,2.60
2022-08-29T23:07:36.279Z,2.65
2022-08-29T23:10:05.530Z,2.80
2022-08-29T23:12:32.276Z,2.67
2022-08-29T23:14:58.970Z,2.72
2022-08-29T23:17:25.668Z,2.60
2022-08-29T23:19:52.529Z,3.10
2022-08-29T23:22:20.780Z,2.67
2022-08-29T23:24:53.885Z,2.55
2022-08-29T23:27:27.589Z,2.88
2022-08-29T23:29:54.341Z,2.45
2022-08-29T23:32:21.113Z,2.45
2022-08-29T23:34:47.803Z,2.60
2022-08-29T23:37:14.530Z,2.80
2022-08-29T23:39:41.283Z,2.70
2022-08-29T23:42:08.098Z,2.80
2022-08-29T23:44:35.765Z,2.95
2022-08-29T23:47:02.874Z,3.10
2022-08-29T23:49:29.738Z,2.95
2022-08-29T23:51:56.465Z,3.00
2022-08-29T23:54:23.248Z,2.80
2022-08-29T23:56:50.055Z,2.85
2022-08-29T23:59:35.254Z,3.00
